sensor_id;sensor_type;location;lat;lon;timestamp;P1;durP1;ratioP1;P2;durP2;ratioP2
49041;SDS011;34859;51.608;11.462;2024-03-02T00:01:58;38.53;;;22.60;;
49041;SDS011;34859;51.608;11.462;2024-03-02T00:04:44;37.70;;;22.33;;
49041;SDS011;34859;51.608;11.462;2024-03-02T00:07:30;36.55;;;21.77;;
49041;SDS011;34859;51.608;11.462;2024-03-02T00:10:20;34.28;;;21.45;;
49041;SDS011;34859;51.608;11.462;2024-03-02T00:13:14;39.63;;;23.63;;
49041;SDS011;34859;51.608;11.462;2024-03-02T00:16:00;38.25;;;23.58;;
49041;SDS011;34859;51.608;11.462;2024-03-02T00:18:47;38.05;;;22.77;;
49041;SDS011;34859;51.608;11.462;2024-03-02T00:21:33;32.50;;;21.08;;
49041;SDS011;34859;51.608;11.462;2024-03-02T00:24:31;39.67;;;23.80;;
49041;SDS011;34859;51.608;11.462;2024-03-02T00:27:19;32.90;;;21.25;;
49041;SDS011;34859;51.608;11.462;2024-03-02T00:33:32;40.47;;;22.73;;
49041;SDS011;34859;51.608;11.462;2024-03-02T00:36:25;38.38;;;22.75;;
49041;SDS011;34859;51.608;11.462;2024-03-02T00:39:12;46.67;;;25.38;;
49041;SDS011;34859;51.608;11.462;2024-03-02T00:42:02;48.45;;;26.58;;
49041;SDS011;34859;51.608;11.462;2024-03-02T00:44:48;52.60;;;25.83;;
49041;SDS011;34859;51.608;11.462;2024-03-02T00:47:38;44.03;;;24.50;;
49041;SDS011;34859;51.608;11.462;2024-03-02T00:50:26;40.63;;;23.92;;
49041;SDS011;34859;51.608;11.462;2024-03-02T12:12:09;17.77;;;13.88;;
49041;SDS011;34859;51.608;11.462;2024-03-02T12:14:55;16.50;;;12.88;;
49041;SDS011;34859;51.608;11.462;2024-03-02T12:17:41;15.50;;;12.57;;
49041;SDS011;34859;51.608;11.462;2024-03-02T12:20:28;13.52;;;11.35;;
49041;SDS011;34859;51.608;11.462;2024-03-02T12:23:15;14.68;;;12.30;;
49041;SDS011;34859;51.608;11.462;2024-03-02T12:26:01;12.77;;;11.48;;
49041;SDS011;34859;51.608;11.462;2024-03-02T12:28:47;53.30;;;35.90;;
49041;SDS011;34859;51.608;11.462;2024-03-02T12:31:34;13.60;;;11.88;;
49041;SDS011;34859;51.608;11.462;2024-03-02T12:34:21;14.85;;;11.73;;
49041;SDS011;34859;51.608;11.462;2024-03-02T12:37:10;13.75;;;11.32;;
49041;SDS011;34859;51.608;11.462;2024-03-02T12:39:57;11.02;;;9.82;;
49041;SDS011;34859;51.608;11.462;2024-03-02T12:42:44;15.27;;;12.55;;
49041;SDS011;34859;51.608;11.462;2024-03-02T12:45:31;12.52;;;10.93;;
49041;SDS011;34859;51.608;11.462;2024-03-02T12:48:17;11.85;;;10.55;;
49041;SDS011;34859;51.608;11.462;2024-03-02T12:51:03;12.38;;;10.80;;
49041;SDS011;34859;51.608;11.462;2024-03-02T12:53:53;13.43;;;11.35;;
49041;SDS011;34859;51.608;11.462;2024-03-02T12:56:42;13.15;;;10.75;;
49041;SDS011;34859;51.608;11.462;2024-03-02T12:59:31;17.55;;;13.15;;
49041;SDS011;34859;51.608;11.462;2024-03-02T13:02:17;11.25;;;10.02;;
49041;SDS011;34859;51.608;11.462;2024-03-02T13:05:04;11.77;;;10.55;;
49041;SDS011;34859;51.608;11.462;2024-03-02T13:07:56;12.25;;;11.00;;
49041;SDS011;34859;51.608;11.462;2024-03-02T13:10:42;18.33;;;14.95;;
49041;SDS011;34859;51.608;11.462;2024-03-02T13:13:31;23.15;;;16.13;;
49041;SDS011;34859;51.608;11.462;2024-03-02T13:16:17;22.20;;;16.65;;
49041;SDS011;34859;51.608;11.462;2024-03-02T13:19:08;22.63;;;16.35;;
49041;SDS011;34859;51.608;11.462;2024-03-02T13:21:54;18.70;;;15.50;;
49041;SDS011;34859;51.608;11.462;2024-03-02T13:24:40;18.80;;;15.43;;
49041;SDS011;34859;51.608;11.462;2024-03-02T13:27:27;22.02;;;17.05;;
49041;SDS011;34859;51.608;11.462;2024-03-02T13:30:13;32.97;;;21.98;;
49041;SDS011;34859;51.608;11.462;2024-03-02T13:32:59;23.45;;;17.48;;
49041;SDS011;34859;51.608;11.462;2024-03-02T13:35:46;26.27;;;16.70;;
49041;SDS011;34859;51.608;11.462;2024-03-02T13:38:31;19.67;;;16.25;;
49041;SDS011;34859;51.608;11.462;2024-03-02T13:41:17;21.08;;;17.05;;
49041;SDS011;34859;51.608;11.462;2024-03-02T13:44:03;18.52;;;15.68;;
49041;SDS011;34859;51.608;11.462;2024-03-02T13:46:49;21.92;;;15.82;;
49041;SDS011;34859;51.608;11.462;2024-03-02T13:49:36;20.45;;;16.50;;
49041;SDS011;34859;51.608;11.462;2024-03-02T13:52:24;17.55;;;14.45;;
49041;SDS011;34859;51.608;11.462;2024-03-02T13:55:12;20.27;;;15.27;;
49041;SDS011;34859;51.608;11.462;2024-03-02T13:57:58;19.45;;;13.95;;
49041;SDS011;34859;51.608;11.462;2024-03-02T14:00:44;21.23;;;16.33;;
49041;SDS011;34859;51.608;11.462;2024-03-02T14:03:31;21.40;;;14.45;;
49041;SDS011;34859;51.608;11.462;2024-03-02T14:06:17;17.20;;;14.32;;
49041;SDS011;34859;51.608;11.462;2024-03-02T14:09:03;15.10;;;13.05;;
49041;SDS011;34859;51.608;11.462;2024-03-02T14:11:52;14.32;;;12.45;;
49041;SDS011;34859;51.608;11.462;2024-03-02T14:14:41;15.20;;;13.02;;
49041;SDS011;34859;51.608;11.462;2024-03-02T14:17:28;13.65;;;11.57;;
49041;SDS011;34859;51.608;11.462;2024-03-02T14:20:14;15.27;;;11.02;;
49041;SDS011;34859;51.608;11.462;2024-03-02T14:23:05;14.80;;;10.82;;
49041;SDS011;34859;51.608;11.462;2024-03-02T14:25:51;15.23;;;11.27;;
49041;SDS011;34859;51.608;11.462;2024-03-02T14:28:37;11.85;;;10.63;;
49041;SDS011;34859;51.608;11.462;2024-03-02T14:31:23;15.35;;;11.77;;
49041;SDS011;34859;51.608;11.462;2024-03-02T14:34:09;13.05;;;11.60;;
49041;SDS011;34859;51.608;11.462;2024-03-02T14:36:55;14.55;;;11.45;;
49041;SDS011;34859;51.608;11.462;2024-03-02T14:39:41;13.85;;;10.15;;
49041;SDS011;34859;51.608;11.462;2024-03-02T14:42:27;9.40;;;8.50;;
49041;SDS011;34859;51.608;11.462;2024-03-02T14:45:16;13.45;;;9.73;;
49041;SDS011;34859;51.608;11.462;2024-03-02T14:48:03;8.50;;;7.70;;
49041;SDS011;34859;51.608;11.462;2024-03-02T14:50:50;9.77;;;7.63;;
49041;SDS011;34859;51.608;11.462;2024-03-02T14:53:36;9.75;;;8.15;;
49041;SDS011;34859;51.608;11.462;2024-03-02T14:56:23;10.40;;;8.38;;
49041;SDS011;34859;51.608;11.462;2024-03-02T14:59:09;9.63;;;8.68;;
49041;SDS011;34859;51.608;11.462;2024-03-02T15:01:56;9.82;;;8.88;;
49041;SDS011;34859;51.608;11.462;2024-03-02T15:04:42;9.85;;;8.85;;
49041;SDS011;34859;51.608;11.462;2024-03-02T15:07:30;9.70;;;8.40;;
49041;SDS011;34859;51.608;11.462;2024-03-02T15:10:16;7.65;;;6.95;;
49041;SDS011;34859;51.608;11.462;2024-03-02T15:13:02;9.90;;;7.45;;
49041;SDS011;34859;51.608;11.462;2024-03-02T15:15:48;8.05;;;7.03;;
49041;SDS011;34859;51.608;11.462;2024-03-02T15:18:34;7.47;;;6.78;;
49041;SDS011;34859;51.608;11.462;2024-03-02T15:21:20;8.48;;;7.63;;
49041;SDS011;34859;51.608;11.462;2024-03-02T15:24:06;8.63;;;7.75;;
49041;SDS011;34859;51.608;11.462;2024-03-02T15:26:52;10.23;;;8.75;;
49041;SDS011;34859;51.608;11.462;2024-03-02T15:29:38;11.18;;;9.05;;
49041;SDS011;34859;51.608;11.462;2024-03-02T15:32:25;10.20;;;9.20;;
49041;SDS011;34859;51.608;11.462;2024-03-02T15:35:12;12.48;;;10.18;;
49041;SDS011;34859;51.608;11.462;2024-03-02T15:37:58;13.32;;;10.40;;
49041;SDS011;34859;51.608;11.462;2024-03-02T15:40:44;15.10;;;10.65;;
49041;SDS011;34859;51.608;11.462;2024-03-02T15:43:30;14.02;;;10.98;;
49041;SDS011;34859;51.608;11.462;2024-03-02T15:46:16;21.05;;;12.63;;
49041;SDS011;34859;51.608;11.462;2024-03-02T15:49:02;16.10;;;11.75;;
49041;SDS011;34859;51.608;11.462;2024-03-02T15:51:50;16.50;;;11.48;;
49041;SDS011;34859;51.608;11.462;2024-03-02T15:54:36;13.05;;;11.75;;
49041;SDS011;34859;51.608;11.462;2024-03-02T15:57:22;16.00;;;12.27;;
49041;SDS011;34859;51.608;11.462;2024-03-02T16:00:09;12.85;;;11.23;;
49041;SDS011;34859;51.608;11.462;2024-03-02T16:02:55;14.25;;;11.65;;
49041;SDS011;34859;51.608;11.462;2024-03-02T16:05:41;13.63;;;11.65;;
49041;SDS011;34859;51.608;11.462;2024-03-02T16:08:26;13.93;;;11.25;;
49041;SDS011;34859;51.608;11.462;2024-03-02T16:11:12;16.25;;;13.15;;
49041;SDS011;34859;51.608;11.462;2024-03-02T16:13:58;17.02;;;12.85;;
49041;SDS011;34859;51.608;11.462;2024-03-02T16:16:44;16.48;;;12.40;;
49041;SDS011;34859;51.608;11.462;2024-03-02T16:19:30;14.32;;;12.30;;
49041;SDS011;34859;51.608;11.462;2024-03-02T16:22:16;21.95;;;15.50;;
49041;SDS011;34859;51.608;11.462;2024-03-02T16:25:02;19.23;;;16.00;;
49041;SDS011;34859;51.608;11.462;2024-03-02T16:27:48;17.23;;;12.88;;
49041;SDS011;34859;51.608;11.462;2024-03-02T16:30:34;14.93;;;12.20;;
49041;SDS011;34859;51.608;11.462;2024-03-02T16:33:20;17.40;;;11.07;;
49041;SDS011;34859;51.608;11.462;2024-03-02T16:36:06;24.90;;;19.77;;
49041;SDS011;34859;51.608;11.462;2024-03-02T16:38:52;25.13;;;19.48;;
49041;SDS011;34859;51.608;11.462;2024-03-02T16:41:38;18.38;;;15.88;;
49041;SDS011;34859;51.608;11.462;2024-03-02T16:44:28;19.38;;;14.65;;
49041;SDS011;34859;51.608;11.462;2024-03-02T16:47:14;16.48;;;13.32;;
49041;SDS011;34859;51.608;11.462;2024-03-02T16:50:00;16.60;;;12.18;;
49041;SDS011;34859;51.608;11.462;2024-03-02T16:52:47;21.83;;;16.05;;
49041;SDS011;34859;51.608;11.462;2024-03-02T16:55:33;30.38;;;17.77;;
49041;SDS011;34859;51.608;11.462;2024-03-02T16:58:19;34.63;;;18.50;;
49041;SDS011;34859;51.608;11.462;2024-03-02T17:01:06;33.75;;;15.63;;
49041;SDS011;34859;51.608;11.462;2024-03-02T17:03:52;25.35;;;15.60;;
49041;SDS011;34859;51.608;11.462;2024-03-02T17:06:38;17.35;;;13.27;;
49041;SDS011;34859;51.608;11.462;2024-03-02T17:09:24;19.23;;;14.25;;
49041;SDS011;34859;51.608;11.462;2024-03-02T17:12:10;21.55;;;14.20;;
49041;SDS011;34859;51.608;11.462;2024-03-02T17:14:56;17.65;;;13.18;;
49041;SDS011;34859;51.608;11.462;2024-03-02T17:17:42;19.60;;;12.50;;
49041;SDS011;34859;51.608;11.462;2024-03-02T17:20:28;16.73;;;12.70;;
49041;SDS011;34859;51.608;11.462;2024-03-02T17:23:17;23.65;;;14.27;;
49041;SDS011;34859;51.608;11.462;2024-03-02T17:26:03;15.82;;;12.73;;
49041;SDS011;34859;51.608;11.462;2024-03-02T17:28:49;16.98;;;11.35;;
49041;SDS011;34859;51.608;11.462;2024-03-02T17:31:35;18.50;;;13.73;;
49041;SDS011;34859;51.608;11.462;2024-03-02T17:34:21;17.73;;;14.25;;
49041;SDS011;34859;51.608;11.462;2024-03-02T17:37:09;20.25;;;11.13;;
49041;SDS011;34859;51.608;11.462;2024-03-02T17:39:55;13.38;;;10.55;;
49041;SDS011;34859;51.608;11.462;2024-03-02T17:42:41;15.55;;;11.68;;
49041;SDS011;34859;51.608;11.462;2024-03-02T17:45:27;12.93;;;10.77;;
49041;SDS011;34859;51.608;11.462;2024-03-02T17:48:12;18.77;;;12.95;;
49041;SDS011;34859;51.608;11.462;2024-03-02T17:50:59;19.95;;;13.40;;
49041;SDS011;34859;51.608;11.462;2024-03-02T17:53:45;16.75;;;12.65;;
49041;SDS011;34859;51.608;11.462;2024-03-02T17:56:34;18.02;;;13.48;;
49041;SDS011;34859;51.608;11.462;2024-03-02T17:59:20;16.33;;;13.00;;
49041;SDS011;34859;51.608;11.462;2024-03-02T18:02:06;16.95;;;12.93;;
49041;SDS011;34859;51.608;11.462;2024-03-02T18:04:52;17.25;;;13.00;;
49041;SDS011;34859;51.608;11.462;2024-03-02T18:07:40;18.05;;;11.95;;
49041;SDS011;34859;51.608;11.462;2024-03-02T18:10:26;17.55;;;13.82;;
49041;SDS011;34859;51.608;11.462;2024-03-02T18:13:14;19.02;;;13.50;;
49041;SDS011;34859;51.608;11.462;2024-03-02T18:16:01;18.90;;;14.80;;
49041;SDS011;34859;51.608;11.462;2024-03-02T18:18:48;19.40;;;15.27;;
49041;SDS011;34859;51.608;11.462;2024-03-02T18:21:35;16.88;;;13.60;;
49041;SDS011;34859;51.608;11.462;2024-03-02T18:24:21;20.90;;;13.68;;
49041;SDS011;34859;51.608;11.462;2024-03-02T18:27:10;19.10;;;12.73;;
49041;SDS011;34859;51.608;11.462;2024-03-02T18:29:57;16.48;;;12.95;;
49041;SDS011;34859;51.608;11.462;2024-03-02T18:32:43;17.52;;;13.20;;
49041;SDS011;34859;51.608;11.462;2024-03-02T18:35:30;21.50;;;14.07;;
49041;SDS011;34859;51.608;11.462;2024-03-02T18:38:16;66.60;;;35.38;;
49041;SDS011;34859;51.608;11.462;2024-03-02T18:41:03;31.50;;;21.45;;
49041;SDS011;34859;51.608;11.462;2024-03-02T18:43:50;20.95;;;14.57;;
49041;SDS011;34859;51.608;11.462;2024-03-02T18:46:37;36.90;;;22.95;;
49041;SDS011;34859;51.608;11.462;2024-03-02T18:49:25;55.97;;;31.02;;
49041;SDS011;34859;51.608;11.462;2024-03-02T18:52:12;44.22;;;26.10;;
49041;SDS011;34859;51.608;11.462;2024-03-02T18:58:33;39.80;;;23.55;;
49041;SDS011;34859;51.608;11.462;2024-03-02T19:23:34;27.77;;;18.15;;
49041;SDS011;34859;51.608;11.462;2024-03-02T20:11:58;42.20;;;25.42;;
49041;SDS011;34859;51.608;11.462;2024-03-02T20:38:05;28.50;;;19.08;;
49041;SDS011;34859;51.608;11.462;2024-03-02T21:04:54;35.45;;;22.02;;
49041;SDS011;34859;51.608;11.462;2024-03-02T21:08:37;30.95;;;18.95;;
49041;SDS011;34859;51.608;11.462;2024-03-02T21:12:52;27.40;;;18.20;;
49041;SDS011;34859;51.608;11.462;2024-03-02T21:16:57;27.10;;;18.73;;
49041;SDS011;34859;51.608;11.462;2024-03-02T21:21:07;28.17;;;17.52;;
49041;SDS011;34859;51.608;11.462;2024-03-02T21:25:22;28.13;;;19.05;;
49041;SDS011;34859;51.608;11.462;2024-03-02T21:29:30;37.08;;;21.55;;
49041;SDS011;34859;51.608;11.462;2024-03-02T21:33:18;36.25;;;21.25;;
49041;SDS011;34859;51.608;11.462;2024-03-02T21:37:10;26.45;;;17.77;;
49041;SDS011;34859;51.608;11.462;2024-03-02T21:41:19;27.90;;;17.92;;
49041;SDS011;34859;51.608;11.462;2024-03-02T21:45:11;29.27;;;19.05;;
49041;SDS011;34859;51.608;11.462;2024-03-02T21:49:20;31.52;;;19.50;;
49041;SDS011;34859;51.608;11.462;2024-03-02T21:53:20;33.13;;;18.98;;
49041;SDS011;34859;51.608;11.462;2024-03-02T21:57:14;33.75;;;20.67;;
49041;SDS011;34859;51.608;11.462;2024-03-02T22:01:11;42.07;;;21.83;;
49041;SDS011;34859;51.608;11.462;2024-03-02T22:05:10;30.13;;;18.45;;
49041;SDS011;34859;51.608;11.462;2024-03-02T22:09:06;34.93;;;19.17;;
49041;SDS011;34859;51.608;11.462;2024-03-02T22:13:00;34.53;;;20.80;;
49041;SDS011;34859;51.608;11.462;2024-03-02T22:16:47;38.53;;;24.30;;
49041;SDS011;34859;51.608;11.462;2024-03-02T22:20:39;34.65;;;21.00;;
49041;SDS011;34859;51.608;11.462;2024-03-02T22:24:31;27.23;;;19.30;;
49041;SDS011;34859;51.608;11.462;2024-03-02T22:28:25;32.92;;;21.67;;
49041;SDS011;34859;51.608;11.462;2024-03-02T22:32:19;32.42;;;20.02;;
49041;SDS011;34859;51.608;11.462;2024-03-02T22:36:06;28.58;;;17.67;;
49041;SDS011;34859;51.608;11.462;2024-03-02T22:39:57;31.92;;;20.10;;
49041;SDS011;34859;51.608;11.462;2024-03-02T22:43:55;28.77;;;19.38;;
49041;SDS011;34859;51.608;11.462;2024-03-02T22:47:50;30.40;;;18.83;;
49041;SDS011;34859;51.608;11.462;2024-03-02T22:51:45;30.20;;;19.83;;
49041;SDS011;34859;51.608;11.462;2024-03-02T22:55:44;31.83;;;18.52;;
49041;SDS011;34859;51.608;11.462;2024-03-02T22:59:40;31.52;;;19.45;;
49041;SDS011;34859;51.608;11.462;2024-03-02T23:03:17;27.75;;;17.38;;
49041;SDS011;34859;51.608;11.462;2024-03-02T23:06:59;32.95;;;18.92;;
49041;SDS011;34859;51.608;11.462;2024-03-02T23:10:48;28.73;;;18.83;;
49041;SDS011;34859;51.608;11.462;2024-03-02T23:14:35;36.50;;;20.20;;
49041;SDS011;34859;51.608;11.462;2024-03-02T23:18:24;34.85;;;21.52;;
49041;SDS011;34859;51.608;11.462;2024-03-02T23:22:11;36.13;;;23.15;;
49041;SDS011;34859;51.608;11.462;2024-03-02T23:25:58;42.90;;;24.23;;
49041;SDS011;34859;51.608;11.462;2024-03-02T23:29:29;39.10;;;23.70;;
49041;SDS011;34859;51.608;11.462;2024-03-02T23:33:17;35.08;;;21.23;;
49041;SDS011;34859;51.608;11.462;2024-03-02T23:37:22;35.58;;;21.40;;
49041;SDS011;34859;51.608;11.462;2024-03-02T23:41:08;34.60;;;20.35;;
49041;SDS011;34859;51.608;11.462;2024-03-02T23:44:57;32.00;;;19.92;;
49041;SDS011;34859;51.608;11.462;2024-03-02T23:52:00;31.30;;;20.20;;
49041;SDS011;34859;51.608;11.462;2024-03-02T23:55:32;31.00;;;19.75;;
49041;SDS011;34859;51.608;11.462;2024-03-02T23:59:07;28.38;;;18.70;;
